Latest Weather Observations for Marble Bar

IDW60801

Issued at 4:33 pm WST Saturday 16 December 2017 (issued every 30 minutes, with the page automatically refreshed every 10 minutes)

About weather observations | Map of weather stations | Latest weather observations for WA | Other Formats
Station Details ID: 004106 Name: MARBLE BAR Lat: -21.18 Lon: 119.75 Height: 182.3 m
Data from the previous 72 hours. | See also: Recent months at Marble Bar
Date/Time
WST
Temp
°C
App
Temp
°C
Dew
Point
°C
Rel
Hum
%
Delta-T
°C
Wind Press
QNH
hPa
Press
MSL
hPa
Rain since
9am
mm
Dir  Spd
km/h
Gust
km/h
Spd
kts
Gust
kts
16/04:30pm 43.3 38.4 1.9 8 22.3 WNW 17 30 9 16 1003.3 1001.7 0.0
16/04:00pm 43.6 38.6 3.8 9 22.1 NW 19 30 10 16 1003.4 1001.8 0.0
16/03:30pm 43.2 40.0 5.0 10 21.4 W 11 20 6 11 1003.7 1002.1 0.0
16/03:00pm 43.8 40.3 5.5 10 21.8 W 13 20 7 11 1004.2 1002.6 0.0
16/02:30pm 43.7 40.2 5.4 10 21.7 NW 13 26 7 14 1004.4 1002.8 0.0
16/02:00pm 42.7 38.6 4.6 10 21.3 WNW 15 28 8 15 1005.0 1003.5 0.0
16/01:30pm 43.0 38.6 4.9 10 21.3 NW 17 26 9 14 1005.3 1003.8 0.0
16/01:00pm 42.9 39.3 4.8 10 21.4 WNW 13 26 7 14 1005.8 1004.3 0.0
16/12:30pm 42.9 38.5 4.8 10 21.3 WNW 17 28 9 15 1006.3 1004.7 0.0
16/12:00pm 41.0 40.5 12.8 19 17.5 N 7 15 4 8 1006.7 1005.1 0.0
16/11:30am 40.1 40.1 14.3 22 16.3 ESE 7 15 4 8 1007.4 1005.8 0.0
16/11:00am 39.3 39.8 15.6 24 15.2 E 7 11 4 6 1007.8 1006.2 0.0
16/10:30am 37.8 38.9 16.7 29 13.7 ENE 6 13 3 7 1008.1 1006.5 0.0
16/10:00am 36.4 38.1 18.0 33 12.1 NNE 6 9 3 5 1008.3 1006.7 0.0
16/09:30am 34.2 36.4 19.1 41 10.0 NW 6 11 3 6 1008.5 1006.9 0.0
16/09:00am 33.3 36.3 20.8 48 8.5 N 6 11 3 6 1008.7 1007.1 0.0
16/08:30am 31.9 35.1 21.7 54 6.9 NNW 7 13 4 7 1008.8 1007.2 0.0
16/08:00am 29.7 33.6 21.9 63 5.3 NNW 4 9 2 5 1008.7 1007.1 0.0
16/07:30am 28.6 32.4 22.8 71 4.0 NNE 7 11 4 6 1008.8 1007.2 0.0
16/07:00am 27.3 31.2 22.9 77 3.0 N 7 9 4 5 1008.5 1006.9 0.0
16/06:30am 26.5 30.6 23.2 82 2.3 NNE 7 11 4 6 1008.3 1006.7 0.0
16/06:00am 25.9 30.0 23.2 85 1.9 N 7 9 4 5 1008.0 1006.4 0.0
16/05:30am 25.4 29.4 23.1 87 1.6 N 7 11 4 6 1007.5 1005.9 0.0
16/05:00am 25.6 29.2 23.1 86 1.7 N 9 11 5 6 1007.4 1005.8 0.0
16/04:30am 25.7 29.5 22.8 84 2.0 N 7 9 4 5 1007.0 1005.4 0.0
16/04:00am 26.0 29.3 22.5 81 2.4 NNE 9 13 5 7 1006.7 1005.1 0.0
16/03:30am 26.2 29.8 22.3 79 2.6 NNE 7 9 4 5 1006.3 1004.7 0.0
16/03:00am 26.5 30.1 22.3 78 2.8 N 7 11 4 6 1005.9 1004.4 0.0
16/02:30am 26.6 29.5 22.4 78 2.8 N 11 15 6 8 1005.9 1004.4 0.0
16/02:00am 27.1 30.2 22.1 74 3.4 NNW 9 15 5 8 1005.6 1004.1 0.0
16/01:30am 27.6 30.4 21.6 70 4.0 N 9 15 5 8 1005.9 1004.4 0.0
16/01:00am 28.0 30.2 21.1 66 4.6 N 11 15 6 8 1006.0 1004.5 0.0
16/12:30am 28.8 31.3 20.3 60 5.6 NNE 7 13 4 7 1006.4 1004.8 0.0
16/12:00am 29.9 31.1 18.3 49 7.5 N 9 13 5 7 1006.6 1005.0 0.0
 
Date/Time
WST
Temp
°C
App
Temp
°C
Dew
Point
°C
Rel
Hum
%
Delta-T
°C
Wind Press
QNH
hPa
Press
MSL
hPa
Rain since
9am
mm
Dir  Spd
km/h
Gust
km/h
Spd
kts
Gust
kts
15/11:30pm 30.6 31.7 18.0 47 8.1 NE 9 15 5 8 1006.9 1005.3 0.0
15/11:00pm 31.3 32.5 16.9 42 9.2 NW 6 13 3 7 1006.5 1004.9 0.0
15/10:30pm 32.6 32.7 15.6 36 10.7 WNW 9 22 5 12 1006.5 1004.9 0.0
15/10:00pm 32.3 32.3 16.2 38 10.2 NNE 11 15 6 8 1006.4 1004.8 0.0
15/09:30pm 33.0 33.3 15.9 35 10.8 N 9 13 5 7 1006.0 1004.5 0.0
15/09:00pm 33.8 33.6 16.6 35 11.0 NNW 13 20 7 11 1005.5 1004.0 0.0
15/08:30pm 34.6 33.7 16.9 35 11.4 NW 17 28 9 15 1005.0 1003.5 0.0
15/08:00pm 35.6 34.5 17.3 33 11.9 NW 19 28 10 15 1004.7 1003.2 0.0
15/07:30pm 37.1 34.7 15.5 27 13.7 NW 22 35 12 19 1004.3 1002.7 0.0
15/07:00pm 38.3 34.9 14.8 25 14.9 NW 26 37 14 20 1003.9 1002.3 0.0
15/06:49pm 38.8 35.2 15.2 24 15.0 NW 28 39 15 21 1003.7 1002.1 0.0
15/06:30pm 40.9 37.5 5.9 12 19.7 NW 13 19 7 10 1003.3 1001.7 0.0
15/06:00pm 41.8 38.4 4.0 10 20.9 NNW 11 15 6 8 1003.0 1001.4 0.0
15/05:30pm 43.0 40.4 3.4 9 21.7 WNW 6 13 3 7 1002.8 1001.2 0.0
15/05:00pm 43.0 39.1 3.4 9 21.8 WNW 13 24 7 13 1002.7 1001.1 0.0
15/04:30pm 43.5 38.0 2.1 8 22.3 WNW 20 30 11 16 1002.7 1001.1 0.0
15/04:00pm 44.2 39.8 2.6 8 22.8 W 15 26 8 14 1002.8 1001.2 0.0
15/03:30pm 44.2 41.5 2.6 8 22.7 WNW 6 15 3 8 1003.1 1001.5 0.0
15/03:00pm 44.5 40.5 2.8 8 22.9 NW 13 30 7 16 1003.4 1001.8 0.0
15/02:30pm 43.8 38.4 2.3 8 22.5 WNW 20 33 11 18 1003.9 1002.3 0.0
15/02:00pm 43.2 39.2 5.0 10 21.5 NW 15 30 8 16 1004.1 1002.5 0.0
15/01:30pm 43.9 41.2 5.5 10 21.8 WNW 9 24 5 13 1004.4 1002.8 0.0
15/01:00pm 42.6 40.3 5.9 11 20.9 W 7 15 4 8 1004.9 1003.4 0.0
15/12:30pm 42.6 40.6 7.2 12 20.4 SW 7 13 4 7 1005.3 1003.8 0.0
15/12:00pm 41.3 39.8 10.4 16 18.6 ENE 9 15 5 8 1005.7 1004.2 0.0
15/11:30am 40.8 40.0 11.8 18 17.7 N 7 11 4 6 1006.4 1004.8 0.0
15/11:00am 39.5 39.1 13.1 21 16.4 NNE 7 17 4 9 1006.8 1005.2 0.0
15/10:30am 38.8 38.7 13.2 21 15.9 NNE 6 9 3 5 1007.3 1005.7 0.0
15/10:00am 37.3 38.6 15.2 27 14.0 SSW 2 6 1 3 1007.5 1005.9 0.0
15/09:30am 35.8 36.7 16.0 30 12.6 W 6 9 3 5 1007.7 1006.1 0.0
15/09:00am 34.0 35.2 16.8 35 11.0 NNW 6 9 3 5 1008.0 1006.4 0.0
15/08:30am 32.3 33.6 17.0 40 9.8 NW 6 11 3 6 1008.2 1006.6 0.0
15/08:00am 30.9 33.2 17.6 45 8.6 NNE 2 9 1 5 1008.4 1006.8 0.0
15/07:30am 29.6 31.3 18.1 50 7.4 NE 6 11 3 6 1008.4 1006.8 0.0
15/07:00am 28.9 30.2 18.4 53 6.8 ESE 9 13 5 7 1008.4 1006.8 0.0
15/06:30am 28.5 29.5 17.7 52 6.9 ESE 9 17 5 9 1008.0 1006.4 0.0
15/06:00am 27.0 28.3 17.2 55 6.2 N 6 6 3 3 1007.4 1005.8 0.0
15/05:30am 26.0 27.9 16.8 57 5.7 NNE 2 6 1 3 1007.2 1005.6 0.0
15/05:00am 26.9 29.2 17.7 57 5.9 N 2 4 1 2 1007.1 1005.5 0.0
15/04:30am 27.4 27.4 15.1 47 7.5 SE 9 17 5 9 1007.1 1005.5 0.0
15/04:00am 26.5 27.8 15.2 49 6.9 ESE 2 7 1 4 1006.5 1004.9 0.0
15/03:30am 27.3 27.1 15.7 49 7.2 E 11 15 6 8 1006.3 1004.7 0.0
15/03:00am 27.9 27.9 15.2 46 7.8 N 9 11 5 6 1005.8 1004.3 0.0
15/02:30am 28.6 28.1 14.8 43 8.4 N 11 15 6 8 1005.9 1004.4 0.0
15/02:00am 28.3 27.7 12.2 37 9.5 N 7 11 4 6 1006.1 1004.6 0.0
15/01:30am 29.5 28.2 11.1 32 10.6 NNW 9 17 5 9 1006.3 1004.7 0.0
15/01:00am 29.6 28.7 11.2 32 10.7 N 7 15 4 8 1006.7 1005.1 0.0
15/12:30am 29.9 28.9 10.9 31 11.0 NE 7 11 4 6 1006.9 1005.3 0.0
15/12:00am 30.1 30.6 11.6 32 10.8 CALM 0 4 0 2 1007.1 1005.5 0.0
 
Date/Time
WST
Temp
°C
App
Temp
°C
Dew
Point
°C
Rel
Hum
%
Delta-T
°C
Wind Press
QNH
hPa
Press
MSL
hPa
Rain since
9am
mm
Dir  Spd
km/h
Gust
km/h
Spd
kts
Gust
kts
14/11:30pm 31.6 30.0 11.4 29 11.8 W 11 19 6 10 1007.7 1006.1 0.0
14/11:00pm 32.3 30.9 10.9 27 12.5 W 9 15 5 8 1007.6 1006.0 0.0
14/10:30pm 33.0 32.2 9.7 24 13.4 NNE 4 13 2 7 1007.4 1005.8 0.0
14/10:00pm 34.0 30.2 11.2 25 13.5 WNW 22 33 12 18 1006.8 1005.2 0.0
14/09:30pm 34.3 31.5 11.4 25 13.6 WNW 17 26 9 14 1006.6 1005.0 0.0
14/09:00pm 34.9 31.7 11.3 24 14.0 WNW 19 32 10 17 1006.5 1004.9 0.0
14/08:30pm 35.7 32.7 12.6 25 14.0 WNW 20 30 11 16 1006.3 1004.7 0.0
14/08:00pm 36.8 33.5 12.9 24 14.7 WNW 22 33 12 18 1005.9 1004.4 0.0
14/07:30pm 38.2 34.6 12.0 21 15.9 WNW 22 35 12 19 1005.5 1004.0 0.0
14/07:00pm 39.4 35.1 10.7 18 17.2 NW 24 37 13 20 1004.9 1003.4 0.0
14/06:30pm 40.8 37.4 9.1 15 18.7 WNW 17 24 9 13 1004.4 1002.8 0.0
14/06:00pm 41.8 37.9 5.3 11 20.5 WNW 15 24 8 13 1003.9 1002.3 0.0
14/05:30pm 42.3 38.6 4.3 10 21.0 W 13 24 7 13 1003.6 1002.0 0.0
14/05:00pm 43.2 38.3 5.0 10 21.5 WNW 20 30 11 16 1003.5 1001.9 0.0
14/04:30pm 43.5 40.7 5.2 10 21.6 WSW 9 20 5 11 1003.6 1002.0 0.0
14/04:00pm 43.9 41.7 5.5 10 21.8 SSW 6 13 3 7 1003.6 1002.0 0.0
14/03:30pm 44.0 40.9 5.6 10 21.8 NW 11 26 6 14 1004.0 1002.4 0.0
14/03:00pm 43.2 41.0 6.4 11 21.1 WNW 7 17 4 9 1004.3 1002.7 0.0
14/02:30pm 43.4 40.8 7.8 12 20.8 SW 11 17 6 9 1004.8 1003.3 0.0
14/02:00pm 42.8 40.8 8.5 13 20.2 NNW 9 19 5 10 1005.1 1003.6 0.0
14/01:30pm 41.9 40.3 8.9 14 19.5 W 7 17 4 9 1005.6 1004.1 0.0
14/01:00pm 41.2 40.7 12.1 18 17.9 SSE 6 13 3 7 1006.3 1004.7 0.0
14/12:30pm 40.9 40.6 12.7 19 17.5 NW 6 15 3 8 1006.7 1005.1 0.0
14/12:00pm 40.3 40.4 14.5 22 16.4 W 7 17 4 9 1007.2 1005.6 0.0
14/11:30am 39.5 40.1 15.2 24 15.5 SSW 6 15 3 8 1007.5 1005.9 0.0
14/11:00am 39.1 40.0 16.1 26 14.9 WNW 6 13 3 7 1007.9 1006.3 0.0
14/10:30am 38.1 37.7 15.2 25 14.5 WSW 11 17 6 9 1008.4 1006.8 0.0
14/10:00am 36.9 37.7 15.9 28 13.4 NW 6 9 3 5 1008.7 1007.1 0.0
14/09:30am 36.3 37.5 15.9 29 13.0 WNW 4 7 2 4 1008.9 1007.3 0.0
14/09:00am 35.6 36.6 15.3 29 12.8 ENE 4 7 2 4 1009.1 1007.5 0.0
14/08:30am 34.5 35.7 15.9 33 11.8 N 4 7 2 4 1009.1 1007.5 0.0
14/08:00am 33.1 33.4 16.0 35 10.8 W 9 13 5 7 1008.9 1007.3 0.0
14/07:30am 31.6 32.3 16.0 39 9.8 W 7 13 4 7 1008.9 1007.3 0.0
14/07:00am 30.1 31.4 16.1 42 8.8 SW 4 7 2 4 1008.8 1007.2 0.0
14/06:30am 28.9 29.3 14.7 42 8.7 WSW 6 7 3 4 1008.5 1006.9 0.0
14/06:00am 27.9 27.6 13.4 40 8.7 WSW 7 9 4 5 1008.4 1006.8 0.0
14/05:30am 27.2 27.5 14.9 47 7.5 SSW 7 9 4 5 1008.2 1006.6 0.0
14/05:00am 26.6 26.3 12.6 42 8.2 WSW 6 13 3 7 1007.6 1006.0 0.0
14/04:30am 26.2 26.7 11.5 40 8.4 CALM 0 0 0 0 1007.5 1005.9 0.0
14/04:00am 26.2 26.3 12.6 43 8.0 WSW 4 9 2 5 1007.3 1005.7 0.0
14/03:30am 26.5 26.8 12.2 41 8.3 SE 2 6 1 3 1007.5 1005.9 0.0
14/03:00am 27.3 27.8 12.9 41 8.5 W 2 4 1 2 1007.4 1005.8 0.0
14/02:30am 27.7 27.5 13.6 42 8.4 W 7 9 4 5 1007.5 1005.9 0.0
14/02:00am 27.7 28.9 16.0 49 7.3 WNW 4 7 2 4 1007.8 1006.2 0.0
14/01:30am 28.0 28.1 16.6 50 7.1 WNW 11 13 6 7 1007.9 1006.3 0.0
14/01:00am 28.5 28.4 16.1 47 7.7 W 11 17 6 9 1008.1 1006.5 0.0
14/12:30am 29.3 28.2 15.4 42 8.6 W 15 24 8 13 1008.4 1006.8 0.0
14/12:00am 29.8 29.0 14.0 38 9.6 W 11 15 6 8 1008.4 1006.8 0.0
 
Date/Time
WST
Temp
°C
App
Temp
°C
Dew
Point
°C
Rel
Hum
%
Delta-T
°C
Wind Press
QNH
hPa
Press
MSL
hPa
Rain since
9am
mm
Dir  Spd
km/h
Gust
km/h
Spd
kts
Gust
kts
13/11:30pm 30.2 29.4 13.9 37 9.9 WNW 11 20 6 11 1008.6 1007.0 0.0
13/11:00pm 30.4 29.5 14.9 39 9.6 WNW 13 17 7 9 1008.7 1007.1 0.0
13/10:30pm 30.8 30.2 15.6 39 9.5 NW 13 17 7 9 1008.9 1007.3 0.0
13/10:00pm 31.6 30.3 14.7 36 10.4 NW 15 24 8 13 1009.1 1007.5 0.0
13/09:30pm 32.1 31.5 15.6 37 10.3 NNW 13 19 7 10 1008.8 1007.2 0.0
13/09:00pm 32.7 31.5 16.1 37 10.5 NNW 17 24 9 13 1008.4 1006.8 0.0
13/08:30pm 33.6 31.8 15.6 34 11.3 NW 19 26 10 14 1008.0 1006.4 0.0
13/08:00pm 34.6 32.0 15.0 31 12.3 NW 22 32 12 17 1007.6 1006.0 0.0
13/07:30pm 35.6 33.2 14.3 28 13.2 NW 20 32 11 17 1007.2 1005.6 0.0
13/07:00pm 36.6 33.5 13.4 25 14.3 NW 22 35 12 19 1006.9 1005.3 0.0
13/06:30pm 37.7 33.9 12.3 22 15.5 NW 24 41 13 22 1006.5 1004.9 0.0
13/06:00pm 39.2 34.6 9.7 17 17.5 WNW 24 37 13 20 1006.0 1004.5 0.0
13/05:30pm 40.2 36.0 9.6 16 18.1 NW 22 33 12 18 1005.7 1004.2 0.0
13/05:00pm 40.8 36.4 9.1 15 18.7 WNW 22 33 12 18 1005.5 1004.0 0.0

Other Formats:

Comma delimited format used in spreadsheet applications
http://www.bom.gov.au/fwo/IDW60801/IDW60801.95317.axf

JavaScript Object Notation format (JSON) in row-major order
http://www.bom.gov.au/fwo/IDW60801/IDW60801.95317.json